Aérodrome :
LOGIN :

S'inscrire | Disclaimer

   EN    FR    IT 

 










Légende :    VFR   VFR Marginal   IFR   IFR Intensif   IFR Très Intensif
Visi : 
Plafond : 
>= 8 km
>= 3000ft
5 à 8 km
1000 à 3000 ft
1500m à 5 km
500 à 1000 ft
800 à 1500m
200 à 500 ft
< 800m
< 200 ft
Symboles :   Orages  Brouillard  Fortes neiges  Fortes précipitations  Vent > 20 kt
SIGMETs :   Divers  Orages  Givrage  Turbulence  Onde Orograph.  Cendres Volcan.







- Altitude de l'aérodrome : 776 ft
- Code IATA : RMS


ETAR - Ramstein Air Base

DERNIER METAR :
  • 291658Z 00000KT 9999 FEW050 15/M02 A2996 RMK AO2A SLP152 T01471017 $

METARs EXPIRÉS :
  • 291558Z 00000KT 9999 FEW060 15/M01 A2998 RMK AO2A SLP160 T01511011 $
  • 291458Z 00000KT 9999 FEW050 15/00 A2999 RMK AO2A SLP162 T01481005 57012 $

TAF TAF ETAR
Valide du 29 à 10h jusqu'au 30 à 16h UTC


291006Z 2910/3016 27003KT 9999 SCT050 BKN070 QNH2994INS
TEMPO 2923/3002 08010G20KT
BECMG 3001/3002 09012KT 9999 SKC QNH2974INS
TEMPO 3007/3010 11010G20KT TX13/2915Z TNM02/3003Z
Pas de NOTAMs connus pour ce terrain.



MET'MAP, la Météo Aéronautique d'un coup d'oeil ! - Copyright ORBIFLY Décembre 2007 - Disclaimer

ORBIFLY MET'MAP TEAM :

Programmation & Développement : Alexandra Zaïnal
Conception & Développement : Baudouin d'Aumeries
Co-Programmation & Développement : Marc-Olivier Méhu
Soutien technique & logistique : Manuel Goepfert

Contact : metmap@orbifly.com




SOURCES & CREDITS :

   NOAA